• Join FlightAware (Why Join?)
  • Login
  • US Flag 
02:32AM EDT


 

Airport Tracker/Info


-or-


 

Live Flight TrackerFlight Track Log ✈ N420CL ✈ 09-May-2013 ✈ KHND - KFKL

Flight Track Log - Related Links

Times and Time Zones

All times are in EDT time to prevent confusion due to time zone crossing. See the N420CL flight status page for this flight to view local times or setup timezone preferences in your user account.

Time Position Orientation Groundspeed Altitude Reporting Facility
EDT Latitude Longitude Course Direction KTS MPH feet Rate Location/Type
03:18PM 35.9906 -115.1325 101° East 156 180 3,100  Level Los Angeles Center
03:19PM 35.9844 -115.0947 101° East 196 226 5,000 2,040 Climbing Los Angeles Center
03:20PM 35.9203 -115.1078 189° South 250 288 6,900 2,100 Climbing Los Angeles Center
03:21PM 35.8786 -115.0344 125° Southeast 265 305 9,700 2,340 Climbing Los Angeles Center
03:22PM 35.8883 -114.9331 83° East 288 331 12,100 1,560 Climbing Los Angeles Center
03:23PM 35.9425 -114.8628 46° Northeast 306 352 13,000 420 Climbing Los Angeles Center
03:24PM 36.0286 -114.7992 31° Northeast 301 346 13,000 600 Level Los Angeles Center
03:25PM 36.0639 -114.7008 66° East 315 362 14,300 1,680 Climbing Los Angeles Center
03:26PM 36.0914 -114.5958 72° East 322 371 16,500 2,220 Climbing Los Angeles Center
03:27PM 36.1222 -114.4917 70° East 323 372 18,900 1,980 Climbing Los Angeles Center
03:28PM 36.1531 -114.3847 70° East 328 377 20,700 1,680 Climbing Los Angeles Center
03:29PM 36.1842 -114.2739 71° East 338 389 22,400 1,800 Climbing Los Angeles Center
03:30PM 36.2144 -114.1356 75° East 347 399 24,500 1,740 Climbing Los Angeles Center
03:31PM 36.2347 -114.0156 78° East 354 407 26,100 1,500 Climbing Los Angeles Center
03:32PM 36.2586 -113.8936 76° East 363 418 27,700 1,440 Climbing Los Angeles Center
03:33PM 36.2806 -113.7703 78° East 366 421 29,200 1,500 Climbing Los Angeles Center
03:34PM 36.3036 -113.6497 77° East 362 417 30,900 1,320 Climbing Los Angeles Center
03:35PM 36.3244 -113.5272 78° East 362 417 32,000 480 Climbing Los Angeles Center
03:36PM 36.3533 -113.3736 77° East 376 433 32,000 480 Level Los Angeles Center
03:37PM 36.3767 -113.2386 78° East 393 452 33,000 780 Climbing Los Angeles Center
03:38PM 36.3992 -113.1181 77° East 397 457 33,700 960 Climbing Los Angeles Center
03:39PM 36.4264 -112.9603 78° East 393 452 35,100 1,020 Climbing Los Angeles Center
03:40PM 36.4497 -112.8300 77° East 391 450 35,900 600 Climbing Los Angeles Center
03:41PM 36.4736 -112.6964 77° East 395 455 36,400 480 Climbing Los Angeles Center
03:43PM 36.4969 -112.5600 78° East 402 463 37,000 240 Climbing Los Angeles Center
03:44PM 36.5211 -112.4214 78° East 409 471 37,000  Level Los Angeles Center
03:45PM 36.5503 -112.2478 78° East 424 488 37,000  Level Los Angeles Center
03:46PM 36.5761 -112.1000 78° East 434 499 37,000  Level Los Angeles Center
03:47PM 36.6014 -111.9528 78° East 437 503 37,000  Level Los Angeles Center
03:47PM 36.6156 -111.8631 79° East 441 507 37,000  Level Denver Center
03:48PM 36.6397 -111.7142 79° East 442 509 37,000  Level Denver Center
03:49PM 36.6658 -111.5639 78° East 446 513 37,000  Level Denver Center
03:50PM 36.6947 -111.3822 79° East 447 514 37,000  Level Denver Center
03:52PM 36.7200 -111.2292 78° East 451 519 37,000  Level Denver Center
03:53PM 36.7500 -111.0450 78° East 453 521 37,000  Level Denver Center
03:54PM 36.7744 -110.8919 79° East 453 521 37,000  Level Denver Center
03:55PM 36.7969 -110.7400 79° East 450 518 37,000  Level Denver Center
03:56PM 36.8200 -110.5847 79° East 455 524 37,000  Level Denver Center
03:57PM 36.8450 -110.4303 79° East 455 524 37,000  Level Denver Center
03:58PM 36.8636 -110.3058 79° East 456 525 37,000  Level Denver Center
03:59PM 36.8931 -110.1081 79° East 456 525 37,000 180 Level Denver Center
04:00PM 36.9208 -109.9336 79° East 459 528 37,500 540 Climbing Denver Center
04:01PM 36.9378 -109.8117 80° East 450 518 38,200 780 Climbing Denver Center
04:02PM 36.9667 -109.6219 79° East 437 503 39,100 420 Climbing Denver Center
04:03PM 36.9872 -109.4794 80° East 436 502 39,100 -60 Level Denver Center
04:04PM 37.0114 -109.3100 80° East 442 509 39,000 -60 Descending Denver Center
04:05PM 37.0325 -109.1611 80° East 451 519 39,000  Level Denver Center
04:06PM 37.0533 -109.0119 80° East 453 521 39,000  Level Denver Center
04:07PM 37.0775 -108.8383 80° East 451 519 39,000  Level Denver Center
04:08PM 37.0994 -108.6914 79° East 449 517 39,000  Level Denver Center
04:09PM 37.1217 -108.5183 81° East 449 517 39,000  Level Denver Center
04:10PM 37.1419 -108.3708 80° East 448 516 39,000  Level Denver Center
04:11PM 37.1650 -108.2003 80° East 445 512 39,000  Level Denver Center
04:12PM 37.1850 -108.0525 80° East 448 516 39,000  Level Denver Center
04:13PM 37.2103 -107.8581 81° East 442 509 39,000  Level Denver Center
04:14PM 37.2303 -107.7106 80° East 446 513 39,000  Level Denver Center
04:15PM 37.2514 -107.5392 81° East 445 512 39,000  Level Denver Center
04:16PM 37.2700 -107.3919 81° East 446 513 39,000  Level Denver Center
04:18PM 37.2950 -107.1964 81° East 444 511 39,000  Level Denver Center
04:19PM 37.3139 -107.0475 81° East 449 517 39,000  Level Denver Center
04:20PM 37.3353 -106.8753 81° East 448 516 39,000  Level Denver Center
04:21PM 37.3522 -106.7267 82° East 450 518 39,000  Level Denver Center
04:22PM 37.3731 -106.5542 81° East 447 514 39,000  Level Denver Center
04:23PM 37.3911 -106.4058 81° East 447 514 39,000  Level Denver Center
04:24PM 37.4089 -106.2572 81° East 449 517 39,000  Level Denver Center
04:25PM 37.4272 -106.0819 82° East 452 520 39,000  Level Denver Center
04:26PM 37.4503 -105.8819 82° East 452 520 39,000  Level Denver Center
04:27PM 37.4672 -105.7322 82° East 452 520 39,000  Level Denver Center
04:28PM 37.4856 -105.5581 82° East 450 518 39,000  Level Denver Center
04:29PM 37.5050 -105.4089 81° East 451 519 39,000  Level Denver Center
04:30PM 37.5200 -105.2581 83° East 453 521 39,000  Level Denver Center
04:31PM 37.5369 -105.0947 82° East 455 524 39,000  Level Denver Center
04:32PM 37.5536 -104.9436 82° East 456 525 39,000  Level Denver Center
04:33PM 37.5728 -104.7681 82° East 452 520 39,000  Level Denver Center
04:34PM 37.5911 -104.5919 82° East 453 521 39,000  Level Denver Center
04:35PM 37.6058 -104.4392 83° East 456 525 39,000  Level Denver Center
04:36PM 37.6211 -104.2858 83° East 458 527 39,000  Level Denver Center
04:38PM 37.6386 -104.1069 83° East 455 524 39,000  Level Denver Center
04:39PM 37.6544 -103.9481 83° East 461 531 39,000  Level Denver Center
04:40PM 37.6694 -103.7908 83° East 465 535 39,000  Level Denver Center
04:41PM 37.6858 -103.6108 83° East 462 532 39,000  Level Denver Center
04:42PM 37.7000 -103.4564 83° East 461 531 39,000  Level Denver Center
04:43PM 37.7158 -103.2761 84° East 463 533 39,000  Level Denver Center
04:44PM 37.7314 -103.0969 84° East 461 531 39,000  Level Denver Center
04:45PM 37.7475 -102.9181 83° East 459 528 39,000  Level Denver Center
04:46PM 37.7600 -102.7650 84° East 458 527 39,000  Level Denver Center
04:47PM 37.7750 -102.5847 84° East 461 531 39,000  Level Denver Center
04:48PM 37.7900 -102.4142 84° East 461 531 39,000  Level Denver Center
04:49PM 37.8022 -102.2597 84° East 461 531 39,000  Level Denver Center
04:50PM 37.8175 -102.0781 84° East 464 534 39,000  Level Denver Center
04:51PM 37.8300 -101.9217 84° East 466 536 39,100  Climbing Denver Center
04:52PM 37.8403 -101.7925 84° East 463 533 39,000 -60 Descending Denver Center
04:53PM 37.8567 -101.5825 84° East 468 539 39,000  Level Kansas City Center
04:54PM 37.8706 -101.4000 84° East 466 536 39,000  Level Kansas City Center
04:55PM 37.8825 -101.2414 85° East 470 541 39,000  Level Denver Center
04:56PM 37.8919 -101.1097 85° East 469 540 39,000  Level Denver Center
04:57PM 37.9036 -100.9506 85° East 470 541 39,000  Level Denver Center
04:58PM 37.9208 -100.7372 84° East 472 543 39,000  Level Kansas City Center
04:59PM 37.9747 -100.5644 68° East 469 540 39,100  Climbing Kansas City Center
05:00PM 38.0247 -100.4169 67° East 474 545 39,100 -60 Level Kansas City Center
05:02PM 38.0817 -100.2456 67° East 472 543 39,000 -60 Descending Kansas City Center
05:03PM 38.1317 -100.0989 67° East 472 543 39,000  Level Kansas City Center
05:04PM 38.1886 -99.9258 67° East 474 545 39,000  Level Kansas City Center
05:05PM 38.2383 -99.7781 67° East 474 545 39,000  Level Kansas City Center
05:06PM 38.2961 -99.6042 67° East 477 549 39,000  Level Kansas City Center
05:07PM 38.3411 -99.4644 68° East 476 548 39,000  Level Kansas City Center
05:08PM 38.3928 -99.3097 67° East 475 547 39,000  Level Kansas City Center
05:09PM 38.4422 -99.1531 68° East 475 547 39,000  Level Kansas City Center
05:10PM 38.5036 -98.9642 67° East 478 550 39,000  Level Kansas City Center
05:11PM 38.5558 -98.8056 67° East 481 554 39,000  Level Kansas City Center
05:12PM 38.6061 -98.6458 68° East 481 554 39,000  Level Kansas City Center
05:13PM 38.6564 -98.4886 68° East 477 549 39,000  Level Kansas City Center
05:14PM 38.7064 -98.3289 68° East 480 552 39,000  Level Kansas City Center
05:15PM 38.7567 -98.1708 68° East 479 551 39,000  Level Kansas City Center
05:16PM 38.8058 -98.0100 69° East 481 554 39,000  Level Kansas City Center
05:17PM 38.8631 -97.8294 68° East 480 552 39,000  Level Kansas City Center
05:18PM 38.9100 -97.6767 68° East 479 551 39,000  Level Kansas City Center
05:19PM 38.9442 -97.4903 77° East 488 562 39,000  Level Kansas City Center
05:20PM 38.9661 -97.3203 81° East 483 556 39,000  Level Kansas City Center
05:21PM 38.9917 -97.1411 80° East 473 544 39,000  Level Kansas City Center
05:22PM 39.0156 -96.9794 79° East 479 551 39,000  Level Kansas City Center
05:23PM 39.0394 -96.7914 81° East 479 551 39,000  Level Kansas City Center
05:24PM 39.0597 -96.6289 81° East 479 551 39,000  Level Kansas City Center
05:25PM 39.0819 -96.4386 81° East 482 555 39,000  Level Kansas City Center
05:26PM 39.1019 -96.2781 81° East 477 549 39,000  Level Kansas City Center
05:27PM 39.1244 -96.0892 81° East 479 551 39,000  Level Kansas City Center
05:28PM 39.1453 -95.9286 80° East 475 547 39,000  Level Kansas City Center
05:29PM 39.1689 -95.7406 81° East 477 549 39,000  Level Kansas City Center
05:30PM 39.1881 -95.5800 81° East 474 545 39,000  Level Kansas City Center
05:32PM 39.2097 -95.3989 81° East 476 548 39,000  Level Kansas City Center
05:33PM 39.2294 -95.2169 82° East 478 550 39,100  Climbing Kansas City Center
05:34PM 39.2492 -95.0544 81° East 475 547 39,000 -60 Descending Kansas City Center
05:35PM 39.2669 -94.8939 82° East 473 544 39,000  Level Kansas City Center
05:36PM 39.2986 -94.7092 77° East 473 544 39,000  Level Kansas City Center
05:37PM 39.3594 -94.5614 62° Northeast 491 565 39,100  Climbing Kansas City Center
05:38PM 39.4269 -94.3903 63° Northeast 480 552 39,000 -60 Descending Kansas City Center
05:39PM 39.4856 -94.2436 63° Northeast 480 552 39,000 240 Level Kansas City Center
05:40PM 39.5539 -94.0736 62° Northeast 476 548 39,600 780 Climbing Kansas City Center
05:41PM 39.6111 -93.9336 62° Northeast 461 531 40,700 660 Climbing Kansas City Center
05:42PM 39.6753 -93.7714 63° Northeast 454 522 41,000 120 Climbing Kansas City Center
05:43PM 39.7311 -93.6333 62° Northeast 468 539 41,000  Level Kansas City Center
05:44PM 39.7894 -93.4775 64° Northeast 475 547 41,000  Level Kansas City Center
05:45PM 39.8628 -93.2950 62° Northeast 481 554 41,000  Level Kansas City Center
05:46PM 39.9258 -93.1392 62° Northeast 487 560 41,000  Level Kansas City Center
05:47PM 39.9858 -92.9797 64° Northeast 494 568 41,000  Level Kansas City Center
05:48PM 40.0467 -92.8208 63° Northeast 495 570 41,000  Level Kansas City Center
05:49PM 40.1139 -92.6428 64° Northeast 494 568 41,000  Level Kansas City Center
05:50PM 40.1731 -92.4864 64° Northeast 497 572 41,000  Level Kansas City Center
05:51PM 40.2342 -92.3147 65° Northeast 496 571 41,000  Level Kansas City Center
05:52PM 40.2914 -92.1528 65° Northeast 498 573 41,000  Level Kansas City Center
05:53PM 40.3611 -91.9594 65° Northeast 496 571 41,000  Level Kansas City Center
05:54PM 40.4186 -91.7986 65° Northeast 494 568 41,000  Level Kansas City Center
05:55PM 40.4742 -91.6367 66° East 492 566 41,000  Level Kansas City Center
05:56PM 40.5283 -91.4756 66° East 487 560 41,000  Level Chicago Center
05:57PM 40.5844 -91.3142 65° Northeast 488 562 41,000  Level Chicago Center
05:58PM 40.6244 -91.1372 73° East 478 550 41,000  Level Chicago Center
05:59PM 40.6453 -90.9294 82° East 479 551 41,000  Level Chicago Center
06:00PM 40.6664 -90.7561 81° East 480 552 41,000  Level Chicago Center
06:02PM 40.6844 -90.5814 82° East 481 554 41,000  Level Chicago Center
06:03PM 40.7036 -90.4064 82° East 483 556 41,000  Level Chicago Center
06:04PM 40.7200 -90.2347 83° East 486 559 41,000  Level Chicago Center
06:05PM 40.7453 -90.0250 81° East 486 559 41,000  Level Chicago Center
06:06PM 40.7617 -89.8494 83° East 486 559 41,000  Level Chicago Center
06:07PM 40.7781 -89.6719 83° East 492 566 41,000  Level Chicago Center
06:08PM 40.7975 -89.5044 81° East 495 570 41,000  Level Chicago Center
06:09PM 40.8186 -89.2897 83° East 492 566 41,000  Level Chicago Center
06:10PM 40.8367 -89.1133 82° East 487 560 41,000  Level Chicago Center
06:11PM 40.8522 -88.9344 83° East 490 564 41,000  Level Chicago Center
06:12PM 40.8689 -88.7550 83° East 487 560 41,000  Level Chicago Center
06:13PM 40.8853 -88.5836 83° East 481 554 41,000  Level Chicago Center
06:14PM 40.9006 -88.4086 83° East 482 555 41,000  Level Chicago Center
06:15PM 40.9203 -88.1967 83° East 489 563 41,000  Level Chicago Center
06:16PM 40.9361 -88.0231 83° East 484 557 41,000  Level Chicago Center
06:17PM 40.9503 -87.8475 84° East 487 560 41,000  Level Chicago Center
06:18PM 40.9656 -87.6703 83° East 491 565 41,000  Level Chicago Center
06:19PM 40.9842 -87.4553 83° East 495 570 41,000  Level Chicago Center
06:20PM 40.9975 -87.2739 84° East 500 575 41,000  Level Chicago Center
06:21PM 41.0119 -87.0933 84° East 499 574 41,000  Level Chicago Center
06:22PM 41.0261 -86.9117 84° East 500 575 41,000  Level Chicago Center
06:23PM 41.0414 -86.7169 84° East 499 574 41,000  Level Chicago Center
06:24PM 41.0544 -86.5361 84° East 497 572 41,000  Level Chicago Center
06:25PM 41.0672 -86.3556 85° East 496 571 41,000  Level Chicago Center
06:26PM 41.0833 -86.1392 84° East 495 570 41,000  Level Chicago Center
06:27PM 41.0956 -85.9586 85° East 494 568 41,000  Level Chicago Center
06:28PM 41.1072 -85.7786 85° East 495 570 41,000  Level Chicago Center
06:29PM 41.1183 -85.6003 85° East 494 568 41,000  Level Chicago Center
06:30PM 41.1297 -85.4206 85° East 495 570 41,000  Level Chicago Center
06:32PM 41.1425 -85.2042 85° East 498 573 41,000  Level Chicago Center
06:33PM 41.1531 -85.0264 85° East 493 567 41,000  Level Chicago Center
06:34PM 41.1639 -84.8503 85° East 486 559 41,000  Level Chicago Center
06:35PM 41.1747 -84.6739 85° East 483 556 41,000  Level Chicago Center
06:36PM 41.1850 -84.4981 86° East 482 555 41,000  Level Chicago Center
06:37PM 41.1956 -84.2872 86° East 480 552 41,000  Level Chicago Center
06:38PM 41.2050 -84.1106 86° East 478 550 41,000  Level Cleveland Center
06:39PM 41.2144 -83.9372 86° East 478 550 41,000  Level Cleveland Center
06:40PM 41.2169 -83.7769 89° East 478 550 41,000  Level Cleveland Center
06:41PM 41.2258 -83.6008 86° East 478 550 41,000 -720 Level Cleveland Center
06:42PM 41.2369 -83.4189 85° East 478 550 39,600 -1,440 Descending Cleveland Center
06:43PM 41.2450 -83.2481 86° East 473 544 38,200 -1,500 Descending Cleveland Center
06:44PM 41.2539 -83.0414 87° East 482 555 36,600 -1,620 Descending Cleveland Center
06:45PM 41.2619 -82.8567 87° East 499 574 35,000 -2,100 Descending Cleveland Center
06:46PM 41.2697 -82.6661 87° East 499 574 32,500 -1,500 Descending Cleveland Center
06:47PM 41.2769 -82.4842 87° East 499 574 32,000 -720 Descending Cleveland Center
06:48PM 41.2842 -82.2992 87° East 493 567 31,100 -1,380 Descending Cleveland Center
06:49PM 41.2908 -82.1306 87° East 498 573 29,300 -1,080 Descending Cleveland Center
06:50PM 41.2994 -81.9458 86° East 498 573 29,000 -1,020 Descending Cleveland Center
06:51PM 41.3036 -81.7578 88° East 498 573 27,300 -1,920 Descending Cleveland Center
06:52PM 41.3094 -81.5811 87° East 493 567 25,200 -1,620 Descending Cleveland Center
06:53PM 41.3131 -81.3986 88° East 467 537 24,100 -960 Descending Cleveland Center
06:54PM 41.3183 -81.2244 88° East 452 520 23,300 -1,800 Descending Cleveland Center
06:55PM 41.3233 -81.0586 88° East 457 526 20,600 -2,820 Descending Cleveland Center
06:56PM 41.3258 -80.8983 89° East 450 518 17,700 -3,000 Descending Cleveland Center
06:57PM 41.3303 -80.7436 88° East 427 491 14,700 -2,700 Descending Cleveland Center
06:58PM 41.3347 -80.5997 88° East 397 457 12,400 -2,100 Descending Cleveland Center
06:59PM 41.3450 -80.4725 84° East 360 414 10,500 -1,800 Descending Cleveland Center
07:00PM 41.3511 -80.3700 85° East 323 372 8,900 -2,100 Descending Cleveland Center
07:01PM 41.3550 -80.2567 87° East 292 336 6,400 -1,860 Descending Cleveland Center
07:02PM 41.3567 -80.1600 89° East 274 315 5,200 -780 Descending Cleveland Center
07:03PM 41.3628 -80.0686 85° East 266 306 4,900 2,880 Descending Cleveland Center
07:04PM 41.3664 -79.9717 87° East 266 306 11,000 3,000 Climbing Cleveland Center
07:05PM 41.3719 -79.8747 86° East 266 306 11,000  Level Cleveland Center
07:07PM 41.3774 -79.8606 90° East  Level Estimated
07:14PM 41.3774 -79.8606 90° East  Level Estimated
07:15PM 41.3774 -79.8606 90° East  Level Estimated